createdAt,value
2023-03-21T00:00:44.681Z,61.69
2023-03-21T00:03:11.855Z,61.75
2023-03-21T00:05:49.658Z,61.76
2023-03-21T00:08:16.794Z,61.97
2023-03-21T00:10:44.771Z,61.61
2023-03-21T00:13:14.694Z,61.54
2023-03-21T00:16:09.338Z,61.40
2023-03-21T00:18:52.408Z,61.44
2023-03-21T00:21:40.919Z,61.84
2023-03-21T00:24:09.784Z,61.95
2023-03-21T00:26:38.068Z,62.32
2023-03-21T00:29:05.685Z,61.26
2023-03-21T00:31:32.743Z,62.04
2023-03-21T00:34:00.771Z,62.96
2023-03-21T00:36:28.531Z,61.92
2023-03-21T00:38:55.707Z,62.63
2023-03-21T00:41:39.121Z,62.72
2023-03-21T00:44:08.809Z,61.89
2023-03-21T00:46:45.526Z,62.03
2023-03-21T00:49:20.852Z,61.76
2023-03-21T00:51:51.771Z,62.39
2023-03-21T00:54:19.572Z,61.81
2023-03-21T00:56:46.676Z,61.24
2023-03-21T00:59:13.997Z,62.24
2023-03-21T01:01:41.321Z,63.69
2023-03-21T01:04:13.590Z,62.92
2023-03-21T01:06:43.950Z,62.99
2023-03-21T01:09:19.518Z,62.52
2023-03-21T01:11:47.373Z,62.44
2023-03-21T01:14:24.739Z,62.26
2023-03-21T01:16:53.700Z,62.29
2023-03-21T01:19:41.021Z,62.54
2023-03-21T01:22:12.526Z,61.95
2023-03-21T01:24:50.216Z,62.60
2023-03-21T01:27:20.174Z,62.64
2023-03-21T01:29:47.372Z,62.84
2023-03-21T01:32:14.504Z,62.30
2023-03-21T01:34:41.666Z,63.16
2023-03-21T01:37:08.778Z,64.06
2023-03-21T01:39:35.943Z,63.08
2023-03-21T01:42:03.107Z,63.60
2023-03-21T01:44:30.771Z,63.53
2023-03-21T01:47:13.386Z,63.14
2023-03-21T01:49:45.942Z,63.61
2023-03-21T01:52:36.606Z,62.88
2023-03-21T01:55:12.030Z,63.06
2023-03-21T01:58:03.927Z,62.44
2023-03-21T02:00:33.322Z,64.09
2023-03-21T02:03:15.209Z,63.48
2023-03-21T02:06:03.193Z,63.71
2023-03-21T02:08:39.548Z,64.30
2023-03-21T02:11:12.287Z,63.79
2023-03-21T02:13:40.618Z,63.48
2023-03-21T02:16:52.265Z,62.92
2023-03-21T02:19:55.958Z,63.77
2023-03-21T02:23:00.131Z,63.23
2023-03-21T02:26:42.283Z,63.18
2023-03-21T02:29:46.443Z,62.27
2023-03-21T02:33:23.559Z,63.13
2023-03-21T02:36:25.597Z,62.97
2023-03-21T02:38:56.238Z,62.84
2023-03-21T02:41:48.601Z,63.13
2023-03-21T02:44:56.192Z,62.87
2023-03-21T02:47:52.684Z,63.43
2023-03-21T02:50:29.942Z,63.30
2023-03-21T02:52:58.802Z,63.37
2023-03-21T02:55:31.035Z,62.68
2023-03-21T02:58:11.755Z,63.68
2023-03-21T03:00:40.539Z,63.50
2023-03-21T03:03:11.395Z,63.34
2023-03-21T03:05:52.200Z,63.41
2023-03-21T03:09:03.268Z,63.50
2023-03-21T03:12:12.468Z,64.05
2023-03-21T03:15:05.784Z,64.41
2023-03-21T03:17:46.437Z,63.64
2023-03-21T03:20:51.259Z,63.91
2023-03-21T03:23:42.249Z,63.60
2023-03-21T03:26:47.836Z,64.03
2023-03-21T03:29:20.812Z,63.69
2023-03-21T03:32:09.418Z,63.18
2023-03-21T03:34:44.002Z,64.16
2023-03-21T03:37:17.638Z,64.20
2023-03-21T03:39:57.964Z,64.07
2023-03-21T03:42:34.572Z,64.45
2023-03-21T03:45:05.558Z,65.75
2023-03-21T03:48:15.781Z,67.86
2023-03-21T03:50:54.062Z,65.58
2023-03-21T03:53:37.045Z,66.08
2023-03-21T03:56:08.290Z,65.05
2023-03-21T03:58:45.308Z,68.57
2023-03-21T04:01:14.125Z,68.12
2023-03-21T04:03:50.616Z,66.98
2023-03-21T04:06:22.038Z,66.26
2023-03-21T04:08:50.933Z,66.52
2023-03-21T04:11:18.117Z,68.24
2023-03-21T04:13:45.374Z,66.78
2023-03-21T04:16:13.018Z,67.37
2023-03-21T04:18:41.923Z,69.33
2023-03-21T04:21:13.911Z,67.87
2023-03-21T04:23:43.120Z,66.89
2023-03-21T04:26:10.965Z,66.77
2023-03-21T04:28:39.776Z,66.42
2023-03-21T04:31:22.671Z,65.66
2023-03-21T04:33:52.008Z,66.17
2023-03-21T04:36:27.515Z,65.90
2023-03-21T04:38:57.326Z,66.42
2023-03-21T04:41:26.200Z,66.65
2023-03-21T04:43:54.373Z,67.27
2023-03-21T04:46:21.925Z,66.77
2023-03-21T04:48:49.515Z,66.89
2023-03-21T04:51:17.568Z,66.67
2023-03-21T04:53:45.915Z,67.13
2023-03-21T04:56:13.127Z,67.08
2023-03-21T04:58:43.167Z,67.92
2023-03-21T05:01:10.522Z,67.69
2023-03-21T05:03:40.335Z,68.15
2023-03-21T05:06:10.334Z,68.78
2023-03-21T05:08:41.821Z,70.76
2023-03-21T05:11:09.036Z,70.11
2023-03-21T05:13:36.395Z,70.37
2023-03-21T05:16:03.755Z,69.84
2023-03-21T05:18:34.854Z,70.31
2023-03-21T05:21:04.224Z,70.31
2023-03-21T05:23:31.634Z,69.93
2023-03-21T05:25:58.722Z,69.75
2023-03-21T05:28:31.421Z,68.94
2023-03-21T05:30:58.686Z,68.15
2023-03-21T05:33:26.301Z,69.16
2023-03-21T05:35:56.021Z,68.71
2023-03-21T05:38:26.564Z,68.97
2023-03-21T05:40:55.041Z,68.84
2023-03-21T05:43:22.487Z,68.79
2023-03-21T05:45:50.208Z,67.44
2023-03-21T05:48:17.802Z,67.97
2023-03-21T05:50:45.869Z,67.72
2023-03-21T05:53:13.162Z,69.17
2023-03-21T05:55:40.484Z,68.85
2023-03-21T05:58:07.667Z,69.14
2023-03-21T06:00:36.770Z,68.07
2023-03-21T06:03:04.058Z,69.31
2023-03-21T06:05:34.629Z,69.01
2023-03-21T06:08:04.194Z,68.95
2023-03-21T06:10:31.652Z,68.21
2023-03-21T06:13:00.024Z,68.44
2023-03-21T06:15:27.351Z,67.89
2023-03-21T06:17:54.429Z,67.83
2023-03-21T06:20:21.857Z,68.53
2023-03-21T06:22:49.153Z,68.01
2023-03-21T06:25:17.732Z,69.05
2023-03-21T06:27:45.102Z,68.62
2023-03-21T06:30:13.640Z,68.25
2023-03-21T06:32:42.136Z,68.17
2023-03-21T06:35:09.729Z,69.10
2023-03-21T06:37:36.812Z,67.80
2023-03-21T06:40:08.004Z,68.44
2023-03-21T06:42:35.565Z,69.10
2023-03-21T06:45:05.879Z,68.99
2023-03-21T06:47:34.214Z,68.55
2023-03-21T06:50:01.311Z,68.18
2023-03-21T06:52:28.378Z,67.84
2023-03-21T06:54:55.460Z,68.62
2023-03-21T06:57:22.556Z,68.78
2023-03-21T06:59:49.602Z,68.93
2023-03-21T07:02:16.813Z,67.89
2023-03-21T07:04:43.949Z,67.20
2023-03-21T07:07:11.034Z,69.27
2023-03-21T07:09:40.503Z,70.92
2023-03-21T07:12:07.661Z,69.39
2023-03-21T07:14:37.080Z,68.53
2023-03-21T07:17:04.451Z,69.19
2023-03-21T07:19:31.918Z,68.64
2023-03-21T07:22:01.432Z,68.59
2023-03-21T07:24:28.485Z,68.78
2023-03-21T07:26:56.135Z,69.32
2023-03-21T07:29:23.407Z,68.93
2023-03-21T07:31:50.486Z,70.77
2023-03-21T07:34:18.816Z,70.11
2023-03-21T07:36:48.759Z,70.52
2023-03-21T07:39:17.592Z,70.27
2023-03-21T07:41:44.873Z,71.14
2023-03-21T07:44:12.079Z,71.28
2023-03-21T07:46:41.457Z,71.54
2023-03-21T07:49:08.950Z,71.09
2023-03-21T07:51:37.233Z,71.62
2023-03-21T07:54:04.773Z,71.72
2023-03-21T07:56:31.855Z,71.14
2023-03-21T07:58:59.412Z,71.90
2023-03-21T08:01:26.897Z,71.56
2023-03-21T08:03:54.083Z,71.49
2023-03-21T08:06:21.645Z,71.39
2023-03-21T08:08:48.956Z,71.55
2023-03-21T08:11:16.009Z,70.16
2023-03-21T08:13:43.155Z,70.29
2023-03-21T08:16:10.383Z,70.76
2023-03-21T08:18:37.630Z,70.34
2023-03-21T08:21:05.067Z,71.76
2023-03-21T08:23:32.425Z,71.55
2023-03-21T08:25:59.522Z,72.39
2023-03-21T08:28:27.232Z,70.45
2023-03-21T08:30:56.063Z,72.31
2023-03-21T08:33:23.985Z,72.19
2023-03-21T08:35:51.336Z,71.80
2023-03-21T08:38:18.441Z,71.24
2023-03-21T08:40:45.765Z,71.24
2023-03-21T08:43:14.841Z,71.04
2023-03-21T08:45:42.185Z,70.50
2023-03-21T08:48:09.328Z,69.81
2023-03-21T08:50:36.507Z,70.41
2023-03-21T08:53:03.587Z,69.96
2023-03-21T08:55:33.241Z,69.58
2023-03-21T08:58:00.907Z,71.79
2023-03-21T09:00:28.869Z,70.28
2023-03-21T09:02:58.674Z,71.57
2023-03-21T09:05:27.112Z,71.18
2023-03-21T09:07:54.593Z,70.11
2023-03-21T09:10:24.212Z,70.78
2023-03-21T09:12:55.584Z,71.91
2023-03-21T09:15:29.699Z,71.35
2023-03-21T09:17:58.556Z,70.92
2023-03-21T09:20:31.181Z,72.01
2023-03-21T09:22:59.702Z,71.65
2023-03-21T09:25:31.812Z,71.44
2023-03-21T09:28:00.993Z,70.30
2023-03-21T09:30:29.325Z,69.65
2023-03-21T09:32:56.948Z,70.92
2023-03-21T09:35:24.825Z,70.57
2023-03-21T09:37:52.498Z,70.94
2023-03-21T09:41:16.696Z,70.06
2023-03-21T09:44:11.475Z,70.31
2023-03-21T09:47:02.976Z,69.43
2023-03-21T09:49:42.133Z,70.60
2023-03-21T09:52:29.665Z,70.14
2023-03-21T09:54:57.069Z,70.35
2023-03-21T09:57:43.738Z,70.39
2023-03-21T10:00:27.324Z,68.96
2023-03-21T10:02:59.836Z,68.97
2023-03-21T10:05:32.785Z,69.38
2023-03-21T10:08:25.090Z,67.20
2023-03-21T10:11:18.811Z,68.12
2023-03-21T10:14:07.608Z,68.75
2023-03-21T10:16:53.622Z,69.99
2023-03-21T10:19:21.184Z,69.98
2023-03-21T10:22:01.685Z,71.23
2023-03-21T10:24:34.608Z,71.62
2023-03-21T10:27:04.475Z,70.28
2023-03-21T10:29:45.612Z,72.31
2023-03-21T10:32:17.137Z,73.02
2023-03-21T10:37:24.736Z,70.07
2023-03-21T10:39:55.188Z,69.58
2023-03-21T10:42:31.436Z,69.07
2023-03-21T10:44:59.201Z,69.08
2023-03-21T10:47:34.103Z,70.51
2023-03-21T10:50:13.726Z,70.22
2023-03-21T10:53:00.383Z,70.16
2023-03-21T10:55:33.976Z,70.26
2023-03-21T10:58:10.722Z,68.79
2023-03-21T11:00:43.394Z,67.34
2023-03-21T11:03:28.892Z,66.51
2023-03-21T11:06:06.960Z,67.78
2023-03-21T11:08:51.272Z,66.90
2023-03-21T11:11:29.234Z,68.05
2023-03-21T11:14:08.817Z,67.03
2023-03-21T11:16:44.214Z,65.95
2023-03-21T11:19:20.344Z,64.95
2023-03-21T11:21:47.702Z,66.22
2023-03-21T11:24:19.863Z,67.91
2023-03-21T11:26:50.752Z,68.50
2023-03-21T11:29:38.817Z,66.29
2023-03-21T11:32:34.946Z,64.23
2023-03-21T11:35:21.670Z,65.56
2023-03-21T11:37:57.068Z,64.74
2023-03-21T11:40:31.594Z,65.95
2023-03-21T11:43:25.712Z,64.80
2023-03-21T11:46:12.727Z,65.15
2023-03-21T11:48:48.744Z,64.68
2023-03-21T11:51:57.222Z,65.01
2023-03-21T11:54:57.162Z,68.88
2023-03-21T11:58:05.332Z,66.98
2023-03-21T12:01:24.229Z,67.06
2023-03-21T12:04:46.886Z,64.90
2023-03-21T12:07:41.480Z,63.94
2023-03-21T12:10:36.276Z,65.07
2023-03-21T12:13:40.333Z,64.21
2023-03-21T12:16:58.017Z,63.38
2023-03-21T12:19:59.717Z,65.13
2023-03-21T12:23:06.429Z,62.89
2023-03-21T12:26:18.334Z,64.45
2023-03-21T12:29:33.676Z,63.49
2023-03-21T12:32:29.613Z,61.48
2023-03-21T12:35:20.438Z,62.42
2023-03-21T12:38:26.090Z,60.81
2023-03-21T12:41:20.911Z,64.27
2023-03-21T12:44:01.542Z,63.45
2023-03-21T12:46:55.802Z,62.84
2023-03-21T12:49:57.741Z,61.99
2023-03-21T12:52:44.475Z,61.86
2023-03-21T12:55:34.742Z,63.59
2023-03-21T12:58:18.245Z,63.50
2023-03-21T13:00:56.203Z,63.81
2023-03-21T13:04:07.086Z,62.64
2023-03-21T13:06:36.741Z,61.97
2023-03-21T13:09:28.490Z,63.19
2023-03-21T13:12:07.762Z,63.17
2023-03-21T13:14:47.661Z,64.37
2023-03-21T13:17:37.332Z,68.02
2023-03-21T13:20:51.773Z,68.14
2023-03-21T13:23:23.653Z,66.96
2023-03-21T13:25:55.350Z,67.90
2023-03-21T13:28:34.448Z,68.34
2023-03-21T13:31:18.371Z,64.98
2023-03-21T13:33:53.598Z,62.16
2023-03-21T13:36:32.080Z,61.65
2023-03-21T13:39:06.069Z,64.18
2023-03-21T13:41:39.112Z,64.93
2023-03-21T13:44:22.795Z,63.98
2023-03-21T13:47:06.701Z,63.86
2023-03-21T13:49:38.445Z,64.71
2023-03-21T13:52:14.010Z,64.41
2023-03-21T13:54:56.154Z,62.56
2023-03-21T13:57:47.072Z,62.06
2023-03-21T14:00:24.199Z,62.38
2023-03-21T14:03:13.329Z,62.83
2023-03-21T14:05:41.704Z,62.76
2023-03-21T14:08:24.857Z,62.48
2023-03-21T14:11:04.139Z,66.38
2023-03-21T14:13:35.068Z,63.05
2023-03-21T14:16:15.466Z,65.59
2023-03-21T14:19:11.881Z,64.21
2023-03-21T14:21:51.551Z,64.80
2023-03-21T14:24:20.929Z,63.78
2023-03-21T14:26:54.060Z,62.92
2023-03-21T14:29:31.650Z,62.21
2023-03-21T14:32:00.984Z,61.16
2023-03-21T14:34:33.343Z,63.48
2023-03-21T14:37:00.615Z,62.95
2023-03-21T14:39:33.732Z,63.46
2023-03-21T14:42:14.075Z,62.38
2023-03-21T14:44:55.259Z,62.07
2023-03-21T14:47:32.257Z,65.06
2023-03-21T14:50:02.045Z,64.46
2023-03-21T14:52:34.626Z,64.84
2023-03-21T14:55:13.667Z,64.55
2023-03-21T14:57:40.801Z,63.84
2023-03-21T15:00:20.838Z,65.13
2023-03-21T15:02:48.085Z,65.49
2023-03-21T15:05:33.356Z,65.11
2023-03-21T15:08:20.888Z,64.89
2023-03-21T15:11:13.589Z,64.40
2023-03-21T15:13:54.860Z,64.74
2023-03-21T15:16:23.097Z,63.10
2023-03-21T15:18:51.443Z,63.87
2023-03-21T15:21:35.009Z,63.71
2023-03-21T15:24:18.335Z,62.98
2023-03-21T15:26:49.347Z,63.74
2023-03-21T15:29:18.384Z,63.47
2023-03-21T15:31:48.369Z,63.40
2023-03-21T15:34:27.771Z,62.95
2023-03-21T15:37:17.139Z,64.11
2023-03-21T15:39:45.188Z,62.85
2023-03-21T15:42:38.656Z,62.05
2023-03-21T15:45:26.552Z,62.17
2023-03-21T15:48:08.114Z,62.58
2023-03-21T15:50:52.283Z,62.13
2023-03-21T15:53:20.220Z,61.82
2023-03-21T15:56:02.775Z,61.74
2023-03-21T15:58:44.671Z,62.13
2023-03-21T16:01:22.163Z,62.60
2023-03-21T16:04:08.321Z,62.66
2023-03-21T16:07:00.444Z,63.13
2023-03-21T16:09:37.939Z,62.36
2023-03-21T16:12:13.813Z,63.02
2023-03-21T16:14:47.236Z,62.17
2023-03-21T16:17:33.230Z,62.40
2023-03-21T16:20:01.239Z,62.71
2023-03-21T16:22:30.064Z,62.59
2023-03-21T16:24:57.143Z,62.19
2023-03-21T16:27:24.340Z,62.33
2023-03-21T16:29:51.455Z,62.72
2023-03-21T16:32:20.488Z,63.67
2023-03-21T16:34:48.309Z,62.17
2023-03-21T16:37:18.695Z,62.25
2023-03-21T16:39:47.383Z,62.64
2023-03-21T16:42:14.521Z,63.13
2023-03-21T16:44:41.542Z,63.60
2023-03-21T16:47:25.404Z,63.80
2023-03-21T16:49:52.607Z,64.35
2023-03-21T16:52:19.674Z,64.85
2023-03-21T16:54:46.741Z,65.38
2023-03-21T16:57:30.160Z,65.20
2023-03-21T16:59:57.620Z,65.00
2023-03-21T17:02:26.174Z,65.79
2023-03-21T17:04:53.396Z,65.55
2023-03-21T17:07:20.812Z,65.61
2023-03-21T17:09:48.020Z,65.15
2023-03-21T17:12:17.658Z,66.61
2023-03-21T17:14:45.687Z,65.85
2023-03-21T17:17:16.822Z,67.18
2023-03-21T17:19:44.405Z,67.16
2023-03-21T17:22:14.076Z,66.73
2023-03-21T17:24:41.656Z,66.80
2023-03-21T17:27:13.341Z,65.32
2023-03-21T17:29:40.516Z,64.81
2023-03-21T17:32:07.710Z,65.23
2023-03-21T17:34:34.767Z,64.67
2023-03-21T17:37:01.864Z,65.74
2023-03-21T17:39:29.029Z,66.23
2023-03-21T17:41:56.843Z,66.76
2023-03-21T17:44:24.105Z,66.40
2023-03-21T17:46:52.498Z,67.90
2023-03-21T17:49:21.030Z,66.97
2023-03-21T17:51:48.173Z,67.67
2023-03-21T17:54:15.342Z,67.00
2023-03-21T17:56:42.868Z,68.14
2023-03-21T17:59:14.354Z,66.99
2023-03-21T18:01:42.591Z,66.99
2023-03-21T18:04:10.876Z,66.88
2023-03-21T18:06:38.318Z,67.07
2023-03-21T18:09:10.973Z,67.46
2023-03-21T18:11:39.712Z,67.16
2023-03-21T18:14:15.937Z,66.33
2023-03-21T18:16:44.385Z,66.01
2023-03-21T18:19:15.231Z,68.19
2023-03-21T18:21:44.878Z,66.62
2023-03-21T18:24:12.632Z,68.84
2023-03-21T18:26:39.772Z,68.60
2023-03-21T18:30:13.083Z,69.69
2023-03-21T18:32:05.431Z,69.87
2023-03-21T18:34:34.251Z,70.73
2023-03-21T18:37:03.902Z,71.94
2023-03-21T18:39:33.825Z,70.31
2023-03-21T18:42:02.609Z,69.57
2023-03-21T18:44:37.246Z,70.31
2023-03-21T18:47:08.505Z,68.18
2023-03-21T18:50:10.456Z,68.64
2023-03-21T18:52:23.470Z,69.04
2023-03-21T18:54:50.755Z,70.69
2023-03-21T18:57:35.811Z,69.41
2023-03-21T19:00:16.806Z,68.66
2023-03-21T19:02:48.399Z,67.12
2023-03-21T19:05:20.317Z,68.03
2023-03-21T19:07:48.365Z,68.45
2023-03-21T19:10:20.346Z,68.15
2023-03-21T19:12:50.680Z,67.96
2023-03-21T19:15:21.496Z,66.79
2023-03-21T19:18:37.084Z,66.75
2023-03-21T19:20:46.417Z,66.68
2023-03-21T19:23:13.776Z,67.05
2023-03-21T19:25:44.711Z,66.48
2023-03-21T19:28:11.822Z,66.59
2023-03-21T19:30:40.256Z,66.18
2023-03-21T19:33:11.375Z,67.19
2023-03-21T19:35:41.238Z,67.55
2023-03-21T19:38:08.549Z,68.52
2023-03-21T19:40:36.138Z,67.47
2023-03-21T19:43:21.531Z,69.18
2023-03-21T19:45:50.472Z,69.03
2023-03-21T19:48:17.592Z,68.63
2023-03-21T19:51:20.091Z,67.91
2023-03-21T19:53:33.527Z,68.04
2023-03-21T19:56:03.718Z,69.09
2023-03-21T19:58:31.309Z,69.00
2023-03-21T20:00:59.071Z,69.04
2023-03-21T20:03:26.578Z,68.89
2023-03-21T20:06:08.127Z,70.93
2023-03-21T20:09:05.727Z,70.21
2023-03-21T20:11:23.962Z,71.58
2023-03-21T20:13:51.411Z,72.89
2023-03-21T20:16:20.366Z,72.48
2023-03-21T20:18:48.080Z,72.65
2023-03-21T20:21:18.002Z,73.29
2023-03-21T20:23:50.889Z,73.12
2023-03-21T20:26:18.592Z,72.95
2023-03-21T20:28:56.605Z,73.21
2023-03-21T20:31:34.598Z,73.43
2023-03-21T20:34:01.667Z,73.70
2023-03-21T20:36:39.358Z,73.44
2023-03-21T20:39:09.529Z,73.48
2023-03-21T20:41:37.125Z,72.69
2023-03-21T20:46:54.154Z,73.00
2023-03-21T20:49:24.162Z,72.80
2023-03-21T20:54:38.882Z,73.55
2023-03-21T20:57:05.964Z,73.02
2023-03-21T20:59:33.600Z,73.39
2023-03-21T21:02:00.753Z,73.27
2023-03-21T21:04:48.317Z,73.58
2023-03-21T21:07:21.324Z,73.57
2023-03-21T21:09:49.951Z,74.32
2023-03-21T21:12:19.281Z,74.12
2023-03-21T21:14:47.792Z,76.23
2023-03-21T21:20:31.394Z,75.84
2023-03-21T21:23:00.526Z,78.20
2023-03-21T21:25:31.791Z,79.68
2023-03-21T21:27:58.995Z,78.27
2023-03-21T21:30:26.117Z,76.50
2023-03-21T21:32:53.982Z,75.64
2023-03-21T21:35:22.736Z,75.69
2023-03-21T21:37:52.428Z,76.71
2023-03-21T21:40:23.038Z,75.48
2023-03-21T21:42:50.290Z,74.70
2023-03-21T21:45:18.881Z,75.01
2023-03-21T21:47:46.487Z,74.56
2023-03-21T21:50:14.267Z,75.09
2023-03-21T21:52:43.554Z,75.89
2023-03-21T21:55:13.100Z,77.21
2023-03-21T21:57:40.886Z,77.76
2023-03-21T22:00:13.423Z,77.26
2023-03-21T22:02:41.617Z,77.45
2023-03-21T22:05:10.456Z,78.48
2023-03-21T22:07:38.011Z,78.01
2023-03-21T22:10:06.604Z,76.87
2023-03-21T22:12:34.210Z,77.17
2023-03-21T22:15:01.450Z,76.82
2023-03-21T22:17:28.602Z,76.32
2023-03-21T22:20:05.253Z,75.83
2023-03-21T22:22:34.799Z,76.88
2023-03-21T22:25:03.578Z,75.89
2023-03-21T22:27:31.120Z,76.29
2023-03-21T22:30:04.339Z,76.51
2023-03-21T22:32:37.111Z,76.37
2023-03-21T22:35:06.910Z,76.22
2023-03-21T22:37:38.389Z,76.29
2023-03-21T22:40:10.385Z,76.08
2023-03-21T22:42:39.575Z,74.96
2023-03-21T22:45:13.433Z,75.83
2023-03-21T22:47:40.945Z,76.20
2023-03-21T22:50:09.386Z,75.72
2023-03-21T22:52:36.520Z,75.82
2023-03-21T22:55:03.865Z,76.68
2023-03-21T22:57:31.058Z,76.63
2023-03-21T22:59:58.220Z,77.30
2023-03-21T23:02:25.509Z,77.21
2023-03-21T23:04:52.597Z,77.15
2023-03-21T23:07:19.738Z,77.21
2023-03-21T23:09:46.835Z,76.33
2023-03-21T23:12:14.706Z,77.46
2023-03-21T23:14:41.845Z,76.56
2023-03-21T23:17:10.103Z,76.54
2023-03-21T23:19:38.699Z,77.43
2023-03-21T23:22:07.726Z,77.52
2023-03-21T23:24:35.098Z,77.78
2023-03-21T23:27:02.619Z,77.38
2023-03-21T23:29:29.820Z,78.00
2023-03-21T23:31:56.850Z,77.60
2023-03-21T23:34:24.076Z,78.34
2023-03-21T23:36:51.476Z,77.83
2023-03-21T23:39:20.093Z,77.67
2023-03-21T23:41:47.211Z,77.93
2023-03-21T23:44:15.326Z,77.69
2023-03-21T23:46:42.393Z,77.67
2023-03-21T23:49:10.104Z,78.68
2023-03-21T23:51:37.133Z,77.54
2023-03-21T23:54:04.263Z,78.62
2023-03-21T23:56:32.294Z,78.58
2023-03-21T23:58:59.837Z,77.21
